Time;durP1;ratioP1;P1;durP2;ratioP2;P2;SDS_P1;SDS_P2;PMS_P1;PMS_P2;Temp;Humidity;BMP_temperature;BMP_pressure;BME280_temperature;BME280_humidity;BME280_pressure;Samples;Min_cycle;Max_cycle;Signal;HPM_P1;HPM_P2
2023/01/26 00:02:24;;;;;;;18.07;13.70;;;-2.10;99.90;;;;;;5029568;28;21022;-50
2023/01/26 00:04:51;;;;;;;32.30;20.83;;;-2.00;99.90;;;;;;5029321;28;20876;-49
2023/01/26 00:07:18;;;;;;;28.53;19.17;;;-2.00;99.90;;;;;;5029484;28;21002;-51
2023/01/26 00:09:45;;;;;;;22.77;14.50;;;-2.00;99.90;;;;;;5030654;28;20987;-49
2023/01/26 00:12:12;;;;;;;19.63;13.27;;;-2.00;99.90;;;;;;5030202;28;20888;-49
2023/01/26 00:14:51;;;;;;;17.83;12.30;;;-2.30;99.90;;;;;;5029864;28;20540;-50
2023/01/26 00:17:25;;;;;;;22.67;12.80;;;-2.50;99.90;;;;;;5029703;28;21002;-49
2023/01/26 00:19:57;;;;;;;21.53;11.87;;;-2.30;99.90;;;;;;5030262;28;20474;-49
2023/01/26 00:22:26;;;;;;;20.50;13.60;;;-2.30;99.90;;;;;;5037812;28;20454;-51
2023/01/26 00:24:53;;;;;;;20.57;11.87;;;-2.60;99.90;;;;;;5048412;28;20548;-52
2023/01/26 00:27:20;;;;;;;19.87;12.80;;;-2.80;99.90;;;;;;5032813;28;20889;-49
2023/01/26 00:29:47;;;;;;;18.40;11.67;;;-2.70;99.90;;;;;;5029482;28;21001;-49
2023/01/26 00:32:14;;;;;;;18.20;12.20;;;-2.40;99.90;;;;;;5029216;28;20529;-55
2023/01/26 00:34:40;;;;;;;18.70;11.37;;;-2.30;99.90;;;;;;5031245;28;20908;-50
2023/01/26 00:37:09;;;;;;;18.30;11.50;;;-2.30;99.90;;;;;;5032300;28;20874;-51
2023/01/26 00:39:35;;;;;;;17.67;10.93;;;-2.50;99.90;;;;;;5049426;28;20532;-49
2023/01/26 00:42:09;;;;;;;16.53;10.43;;;-2.70;99.90;;;;;;5052203;28;20517;-50
2023/01/26 00:44:41;;;;;;;19.33;13.20;;;-2.70;99.90;;;;;;5051044;28;20443;-51
2023/01/26 00:47:10;;;;;;;18.57;11.60;;;-2.50;99.90;;;;;;5052174;28;20734;-49
2023/01/26 00:49:37;;;;;;;16.73;12.73;;;-2.30;99.90;;;;;;5052410;28;20536;-50
2023/01/26 00:52:05;;;;;;;17.80;12.30;;;-2.20;99.90;;;;;;5053454;28;21009;-49
2023/01/26 00:54:33;;;;;;;18.50;12.23;;;-2.20;99.90;;;;;;5052333;28;20567;-49
2023/01/26 00:57:00;;;;;;;18.30;12.67;;;-2.20;99.90;;;;;;5052697;28;20529;-49
2023/01/26 00:59:28;;;;;;;24.93;13.60;;;-2.60;99.90;;;;;;5053290;28;20536;-50
2023/01/26 01:01:56;;;;;;;23.30;13.60;;;-2.70;99.90;;;;;;5051260;28;20816;-52
2023/01/26 01:04:24;;;;;;;18.23;10.73;;;-2.60;99.90;;;;;;5051862;28;20449;-51
2023/01/26 01:06:51;;;;;;;16.50;12.13;;;-2.50;99.90;;;;;;5053227;28;20524;-49
2023/01/26 01:09:18;;;;;;;15.13;10.70;;;-2.50;99.90;;;;;;5052747;28;20524;-50
2023/01/26 01:11:46;;;;;;;15.90;11.10;;;-2.30;99.90;;;;;;5052709;28;20544;-50
2023/01/26 01:14:14;;;;;;;16.50;9.90;;;-2.20;99.90;;;;;;5052339;28;20568;-49
2023/01/26 01:16:41;;;;;;;17.53;12.47;;;-2.40;99.90;;;;;;5053467;28;20533;-49
2023/01/26 01:19:12;;;;;;;17.60;11.37;;;-2.30;99.90;;;;;;5053027;28;20524;-50
2023/01/26 01:21:39;;;;;;;14.70;11.60;;;-2.20;99.90;;;;;;5052826;28;20560;-50
2023/01/26 01:24:07;;;;;;;14.83;10.73;;;-2.20;99.90;;;;;;5051713;28;20525;-50
2023/01/26 01:26:34;;;;;;;16.27;10.53;;;-2.70;99.90;;;;;;5052486;28;20547;-50
2023/01/26 01:29:02;;;;;;;13.20;9.57;;;-2.70;99.90;;;;;;5053100;28;20532;-49
2023/01/26 01:31:29;;;;;;;17.47;12.90;;;-2.50;99.90;;;;;;5051708;28;20549;-51
2023/01/26 01:33:56;;;;;;;24.63;12.73;;;-2.30;99.90;;;;;;5051951;28;21096;-49
2023/01/26 01:36:24;;;;;;;14.90;11.50;;;-2.30;99.90;;;;;;5050873;28;20532;-52
2023/01/26 01:38:51;;;;;;;19.47;11.90;;;-2.30;99.90;;;;;;5051291;28;20851;-49
2023/01/26 01:41:21;;;;;;;18.70;10.47;;;-2.20;99.90;;;;;;5050851;28;20549;-50
2023/01/26 01:43:48;;;;;;;16.40;11.03;;;-2.50;99.90;;;;;;5049843;28;20529;-49
2023/01/26 01:46:23;;;;;;;16.83;11.03;;;-2.50;99.90;;;;;;5051373;28;20546;-49
2023/01/26 01:48:54;;;;;;;16.30;11.07;;;-2.40;99.90;;;;;;5043053;28;20524;-50
2023/01/26 01:51:28;;;;;;;15.77;11.27;;;-2.20;99.90;;;;;;5032296;28;20626;-50
2023/01/26 01:53:59;;;;;;;18.40;12.13;;;-2.30;99.90;;;;;;5033678;28;20557;-49
2023/01/26 01:56:28;;;;;;;12.57;10.70;;;-2.50;99.90;;;;;;5032922;28;21014;-49
2023/01/26 01:58:58;;;;;;;15.97;10.30;;;-2.40;99.90;;;;;;5032716;28;20529;-50
2023/01/26 02:01:27;;;;;;;17.07;11.23;;;-2.30;99.90;;;;;;5032480;28;20541;-52
2023/01/26 02:04:02;;;;;;;14.40;8.63;;;-2.20;99.90;;;;;;5031603;28;20521;-50
2023/01/26 02:06:33;;;;;;;13.17;9.60;;;-2.20;99.90;;;;;;5031729;28;20535;-48
2023/01/26 02:09:00;;;;;;;16.90;10.93;;;-2.10;99.90;;;;;;5032305;28;20533;-49
2023/01/26 02:11:32;;;;;;;20.60;11.33;;;-2.50;99.90;;;;;;5031749;28;20541;-49
2023/01/26 02:14:02;;;;;;;17.20;11.13;;;-2.80;99.90;;;;;;5031555;28;20914;-49
2023/01/26 02:16:30;;;;;;;15.03;10.27;;;-2.50;99.90;;;;;;5031425;28;20529;-48
2023/01/26 02:18:57;;;;;;;15.03;9.27;;;-2.30;99.90;;;;;;5031373;28;20542;-50
2023/01/26 02:21:24;;;;;;;15.77;10.43;;;-2.20;99.90;;;;;;5030096;28;20577;-50
2023/01/26 02:24:01;;;;;;;17.77;10.70;;;-2.30;99.90;;;;;;5029868;28;20450;-49
2023/01/26 02:26:32;;;;;;;15.60;10.10;;;-2.30;99.90;;;;;;5048386;28;21074;-49
2023/01/26 02:28:59;;;;;;;16.40;10.60;;;-2.30;99.90;;;;;;5051023;28;20473;-50
2023/01/26 02:31:27;;;;;;;13.50;9.93;;;-2.30;99.90;;;;;;5049486;28;20552;-50
2023/01/26 02:33:54;;;;;;;14.60;9.80;;;-2.20;99.90;;;;;;5049849;28;20748;-50
2023/01/26 02:36:22;;;;;;;18.70;11.50;;;-2.40;99.90;;;;;;5051005;28;20982;-49
2023/01/26 02:38:58;;;;;;;14.30;10.30;;;-2.40;99.90;;;;;;5051746;28;20553;-49
2023/01/26 02:44:11;;;;;;;20.00;10.87;;;-2.90;99.90;;;;;;5050205;28;20416;-49
2023/01/26 02:46:38;;;;;;;16.30;11.13;;;-3.30;99.90;;;;;;5051061;28;20528;-51
2023/01/26 02:51:49;;;;;;;16.30;10.93;;;-3.40;99.90;;;;;;5051290;28;20454;-49
2023/01/26 02:56:57;;;;;;;20.13;12.80;;;-2.80;99.90;;;;;;5047999;28;20490;-49
2023/01/26 02:59:25;;;;;;;21.97;13.33;;;-2.70;99.90;;;;;;5050679;28;20546;-49
2023/01/26 03:01:54;;;;;;;16.97;12.30;;;-2.80;99.90;;;;;;5050837;28;20543;-49
2023/01/26 03:04:21;;;;;;;15.97;10.67;;;-2.60;99.90;;;;;;5049495;28;20527;-49
2023/01/26 03:06:48;;;;;;;20.43;11.13;;;-2.50;99.90;;;;;;5051041;28;20521;-48
2023/01/26 03:09:15;;;;;;;18.80;11.73;;;-2.50;99.90;;;;;;5050656;28;20523;-49
2023/01/26 03:11:42;;;;;;;20.67;12.57;;;-2.60;99.90;;;;;;5050917;28;20544;-48
2023/01/26 03:14:09;;;;;;;18.57;11.40;;;-2.40;99.90;;;;;;5049760;28;20532;-49
2023/01/26 03:16:38;;;;;;;19.50;11.90;;;-2.50;99.90;;;;;;5050058;28;20529;-49
2023/01/26 03:27:38;;;;;;;15.70;10.83;;;-2.60;99.90;;;;;;5047619;28;20431;-76
2023/01/26 03:30:06;;;;;;;17.20;10.63;;;-2.40;99.90;;;;;;5048841;28;20648;-76
2023/01/26 03:32:34;;;;;;;16.50;10.83;;;-2.40;99.90;;;;;;5050251;28;20545;-76
2023/01/26 03:35:01;;;;;;;16.90;10.63;;;-2.60;99.90;;;;;;5050104;28;20575;-76
2023/01/26 03:37:33;;;;;;;17.07;10.13;;;-2.60;99.90;;;;;;5049601;28;20877;-76
2023/01/26 03:56:31;;;;;;;17.97;11.77;;;-2.70;99.90;;;;;;5050680;28;20986;-76
2023/01/26 03:59:06;;;;;;;19.40;12.07;;;-2.60;99.90;;;;;;5051250;28;20472;-76
2023/01/26 04:01:35;;;;;;;18.00;12.77;;;-2.60;99.90;;;;;;5051186;28;20520;-76
2023/01/26 04:09:33;;;;;;;12.93;10.30;;;-2.80;99.90;;;;;;5049281;28;20445;-77
2023/01/26 04:12:00;;;;;;;18.43;10.33;;;-2.70;99.90;;;;;;5049584;28;20499;-77
2023/01/26 04:22:44;;;;;;;13.30;9.67;;;-2.60;99.90;;;;;;5050747;28;20425;-77
2023/01/26 04:25:13;;;;;;;15.10;11.07;;;-2.50;99.90;;;;;;5049089;28;20817;-76
2023/01/26 04:27:40;;;;;;;16.43;11.00;;;-2.50;99.90;;;;;;5049085;28;20531;-77
2023/01/26 04:30:09;;;;;;;16.83;10.00;;;-2.80;99.90;;;;;;5049100;28;20556;-76
2023/01/26 04:32:36;;;;;;;17.33;10.43;;;-2.60;99.90;;;;;;5049293;28;20452;-77
2023/01/26 04:35:05;;;;;;;17.90;10.80;;;-2.70;99.90;;;;;;5049373;28;20556;-76
2023/01/26 04:37:33;;;;;;;15.37;10.13;;;-2.70;99.90;;;;;;5049209;28;20895;-78
2023/01/26 04:40:00;;;;;;;19.23;10.90;;;-2.60;99.90;;;;;;5050192;28;20908;-77
2023/01/26 04:42:27;;;;;;;16.37;9.87;;;-2.50;99.90;;;;;;5050136;28;20456;-78
2023/01/26 04:44:54;;;;;;;12.60;9.50;;;-2.50;99.90;;;;;;5050112;28;20532;-78
2023/01/26 04:47:21;;;;;;;16.90;9.83;;;-2.60;99.90;;;;;;5049038;28;21006;-78
2023/01/26 04:49:48;;;;;;;16.37;11.20;;;-2.70;99.90;;;;;;5049695;28;20545;-78
2023/01/26 04:52:17;;;;;;;15.83;11.00;;;-2.60;99.90;;;;;;5049223;28;20897;-77
2023/01/26 04:54:44;;;;;;;15.93;11.00;;;-2.50;99.90;;;;;;5048749;28;20564;-78
2023/01/26 04:57:10;;;;;;;18.77;11.40;;;-2.60;99.90;;;;;;5048924;28;20891;-78
2023/01/26 04:59:38;;;;;;;16.53;9.53;;;-2.70;99.90;;;;;;5048806;28;20568;-78
2023/01/26 05:02:04;;;;;;;12.87;9.40;;;-2.60;99.90;;;;;;5050392;28;20450;-78
2023/01/26 05:04:32;;;;;;;17.97;10.27;;;-2.50;99.90;;;;;;5048248;28;20873;-77
2023/01/26 05:06:58;;;;;;;19.53;10.10;;;-2.50;99.90;;;;;;5049251;28;20533;-78
2023/01/26 05:09:27;;;;;;;18.67;10.87;;;-2.60;99.90;;;;;;5048652;28;20551;-78
2023/01/26 05:12:31;;;;;;;15.27;9.93;;;-2.60;99.90;;;;;;5049265;28;20535;-78
2023/01/26 05:14:40;;;;;;;12.07;8.80;;;-2.60;99.90;;;;;;5048048;28;20472;-78
2023/01/26 05:17:07;;;;;;;13.60;8.77;;;-2.60;99.90;;;;;;5048853;28;21002;-78
2023/01/26 05:19:34;;;;;;;16.07;10.47;;;-2.60;99.90;;;;;;5051082;28;20909;-78
2023/01/26 05:22:01;;;;;;;13.97;9.60;;;-2.70;99.90;;;;;;5054118;28;20539;-78
2023/01/26 05:24:29;;;;;;;12.93;9.70;;;-2.70;99.90;;;;;;5053653;28;20580;-78
2023/01/26 05:27:19;;;;;;;16.43;9.90;;;-2.60;99.90;;;;;;5052733;28;20529;-77
2023/01/26 05:29:43;;;;;;;13.10;8.27;;;-2.60;99.90;;;;;;5057465;22;21010;-47
2023/01/26 05:32:10;;;;;;;16.77;9.40;;;-2.60;99.90;;;;;;5031901;28;21059;-47
2023/01/26 05:34:37;;;;;;;14.60;9.57;;;-2.60;99.90;;;;;;5029971;28;20910;-47
2023/01/26 05:37:04;;;;;;;16.27;10.07;;;-2.70;99.90;;;;;;5031754;28;20553;-48
2023/01/26 05:39:32;;;;;;;14.63;9.73;;;-2.60;99.90;;;;;;5032082;28;20529;-47
2023/01/26 05:41:59;;;;;;;14.43;10.20;;;-2.60;99.90;;;;;;5023406;28;20518;-50
2023/01/26 05:44:26;;;;;;;16.07;10.00;;;-2.70;99.90;;;;;;5046777;22;20572;-50
2023/01/26 05:46:53;;;;;;;15.60;9.20;;;-2.60;99.90;;;;;;5070329;28;20523;-52
2023/01/26 05:49:19;;;;;;;14.07;9.90;;;-2.70;99.90;;;;;;5070407;28;20513;-50
2023/01/26 05:51:46;;;;;;;16.00;10.90;;;-2.70;99.90;;;;;;5065447;28;20543;-50
2023/01/26 05:54:13;;;;;;;20.30;11.60;;;-2.70;99.90;;;;;;5065387;28;20567;-52
2023/01/26 05:56:42;;;;;;;16.27;10.33;;;-2.70;99.90;;;;;;5033732;28;20576;-51
2023/01/26 05:59:09;;;;;;;14.83;10.17;;;-2.90;99.90;;;;;;5043537;28;20464;-50
2023/01/26 06:01:35;;;;;;;16.20;9.53;;;-2.70;99.90;;;;;;5041610;28;20552;-51
2023/01/26 06:04:02;;;;;;;14.83;9.43;;;-2.70;99.90;;;;;;5046424;28;20538;-49
2023/01/26 06:06:29;;;;;;;15.37;9.73;;;-2.80;99.90;;;;;;5045152;28;20523;-49
2023/01/26 06:08:57;;;;;;;20.57;11.27;;;-2.70;99.90;;;;;;5046388;28;20522;-50
2023/01/26 06:11:24;;;;;;;14.10;9.13;;;-2.70;99.90;;;;;;5050713;28;20540;-52
2023/01/26 06:13:52;;;;;;;14.10;9.30;;;-2.60;99.90;;;;;;5048968;28;20525;-52
2023/01/26 06:16:19;;;;;;;12.20;8.33;;;-2.70;99.90;;;;;;5047647;28;20556;-50
2023/01/26 06:18:48;;;;;;;14.07;9.17;;;-2.60;99.90;;;;;;5045153;28;20564;-50
2023/01/26 06:21:15;;;;;;;12.40;9.50;;;-2.80;99.90;;;;;;5050593;28;20682;-50
2023/01/26 06:23:42;;;;;;;17.60;13.97;;;-2.80;99.90;;;;;;5044581;28;20530;-50
2023/01/26 06:26:09;;;;;;;14.10;10.27;;;-2.70;99.90;;;;;;5039237;28;20541;-53
2023/01/26 06:28:36;;;;;;;16.37;10.60;;;-2.70;99.90;;;;;;5039397;28;20527;-50
2023/01/26 06:31:07;;;;;;;16.73;9.00;;;-2.70;99.90;;;;;;5040651;28;20518;-53
2023/01/26 06:33:36;;;;;;;13.07;9.33;;;-2.60;99.90;;;;;;5048571;28;20720;-50
2023/01/26 06:36:03;;;;;;;15.40;8.67;;;-2.70;99.90;;;;;;5051055;28;20572;-52
2023/01/26 06:38:30;;;;;;;13.30;9.40;;;-2.70;99.90;;;;;;5049502;28;20541;-51
2023/01/26 06:41:01;;;;;;;14.90;8.97;;;-2.60;99.90;;;;;;5049921;28;20833;-50
2023/01/26 06:43:28;;;;;;;16.93;9.10;;;-3.00;99.90;;;;;;5048862;28;20814;-51
2023/01/26 06:45:56;;;;;;;16.17;8.90;;;-3.20;99.90;;;;;;5049545;28;20505;-50
2023/01/26 06:48:25;;;;;;;13.80;8.50;;;-3.80;99.90;;;;;;5044940;28;20813;-49
2023/01/26 06:50:53;;;;;;;17.50;9.10;;;-4.00;99.90;;;;;;5029958;28;20526;-52
2023/01/26 06:53:30;;;;;;;16.17;9.90;;;-3.80;99.90;;;;;;5034609;28;20439;-50
2023/01/26 06:55:57;;;;;;;13.90;9.23;;;-3.70;99.90;;;;;;5050317;28;20854;-51
2023/01/26 06:58:24;;;;;;;13.40;9.07;;;-3.60;99.90;;;;;;5049137;28;20503;-51
2023/01/26 07:00:51;;;;;;;18.60;9.90;;;-3.70;99.90;;;;;;5050868;28;20546;-53
2023/01/26 07:03:18;;;;;;;13.98;10.43;;;-4.00;99.90;;;;;;5049864;28;20529;-50
2023/01/26 07:05:46;;;;;;;12.88;8.45;;;-3.90;99.90;;;;;;5050764;28;20298;-50
2023/01/26 07:08:13;;;;;;;10.93;9.00;;;-3.80;99.90;;;;;;5049209;28;20308;-50
2023/01/26 07:10:40;;;;;;;22.48;9.32;;;-3.60;99.90;;;;;;5050127;28;20292;-50
2023/01/26 07:13:07;;;;;;;15.10;8.97;;;-3.40;99.90;;;;;;5048870;28;20637;-51
2023/01/26 07:15:34;;;;;;;13.77;10.65;;;-3.60;99.90;;;;;;5048614;28;20568;-52
2023/01/26 07:18:01;;;;;;;15.17;8.33;;;-3.40;99.90;;;;;;5049541;28;20290;-52
2023/01/26 07:20:28;;;;;;;15.27;9.10;;;-3.60;99.90;;;;;;5049070;28;20471;-50
2023/01/26 07:22:57;;;;;;;13.55;7.90;;;-3.70;99.90;;;;;;5049055;28;20290;-50
2023/01/26 07:25:24;;;;;;;12.60;7.87;;;-3.70;99.90;;;;;;5049410;28;20713;-49
2023/01/26 07:27:56;;;;;;;16.33;8.80;;;-3.70;99.90;;;;;;5050398;28;20446;-49
2023/01/26 07:30:23;;;;;;;10.55;7.05;;;-3.60;99.90;;;;;;5050143;28;20446;-52
2023/01/26 07:32:50;;;;;;;11.87;7.10;;;-3.50;99.90;;;;;;5050172;28;20288;-53
2023/01/26 07:35:17;;;;;;;13.63;8.60;;;-3.30;99.90;;;;;;5049078;28;20899;-50
2023/01/26 07:37:44;;;;;;;12.30;8.00;;;-3.30;99.90;;;;;;5048559;28;20441;-51
2023/01/26 07:40:13;;;;;;;12.00;7.87;;;-3.30;99.90;;;;;;5049208;28;20532;-49
2023/01/26 07:42:40;;;;;;;13.73;8.53;;;-3.30;99.90;;;;;;5048718;28;20451;-49
2023/01/26 07:45:08;;;;;;;14.67;7.13;;;-3.20;99.90;;;;;;5048177;28;20560;-48
2023/01/26 07:47:36;;;;;;;10.13;7.03;;;-3.10;99.90;;;;;;5048402;28;20905;-49
2023/01/26 07:50:04;;;;;;;10.10;8.20;;;-3.20;99.90;;;;;;5048718;28;21037;-49
2023/01/26 07:52:31;;;;;;;10.37;8.40;;;-3.20;99.90;;;;;;5049434;28;20955;-49
2023/01/26 07:54:58;;;;;;;10.67;6.87;;;-3.10;99.90;;;;;;5049373;28;20497;-49
2023/01/26 07:57:26;;;;;;;13.00;8.47;;;-3.30;99.90;;;;;;5048534;28;20574;-49
2023/01/26 07:59:53;;;;;;;16.30;9.80;;;-3.00;99.90;;;;;;5049965;28;20542;-51
2023/01/26 08:02:20;;;;;;;15.63;8.70;;;-2.80;99.90;;;;;;5049183;28;20927;-50
2023/01/26 08:04:48;;;;;;;16.30;8.63;;;-2.80;99.90;;;;;;5049017;28;21046;-51
2023/01/26 08:07:14;;;;;;;10.10;7.50;;;-2.80;99.90;;;;;;5049160;28;20479;-51
2023/01/26 08:09:41;;;;;;;13.50;8.17;;;-2.90;99.90;;;;;;5050010;28;20525;-51
2023/01/26 08:12:08;;;;;;;12.93;7.80;;;-2.80;99.90;;;;;;5049893;28;20545;-50
2023/01/26 08:14:37;;;;;;;13.00;8.00;;;-2.70;99.90;;;;;;5048571;28;20556;-53
2023/01/26 08:17:04;;;;;;;11.90;8.37;;;-2.70;99.90;;;;;;5049652;28;20600;-52
2023/01/26 08:19:30;;;;;;;12.77;8.70;;;-2.80;99.90;;;;;;5049137;28;20533;-50
2023/01/26 08:21:57;;;;;;;13.63;7.50;;;-2.70;99.90;;;;;;5049822;28;20533;-50
2023/01/26 08:24:25;;;;;;;14.30;7.87;;;-2.80;99.90;;;;;;5048529;28;20543;-52
2023/01/26 08:26:52;;;;;;;12.40;8.73;;;-2.90;99.90;;;;;;5049845;28;20499;-50
2023/01/26 08:29:19;;;;;;;10.60;7.80;;;-2.90;99.90;;;;;;5048876;28;21032;-52
2023/01/26 08:31:47;;;;;;;12.20;8.70;;;-2.80;99.90;;;;;;5049554;28;20457;-51
2023/01/26 08:34:14;;;;;;;14.53;9.00;;;-2.70;99.90;;;;;;5048629;28;20553;-50
2023/01/26 08:36:41;;;;;;;13.50;9.27;;;-2.60;99.90;;;;;;5049511;28;20568;-50
2023/01/26 08:39:08;;;;;;;11.20;7.80;;;-2.50;99.90;;;;;;5048838;28;20523;-50
2023/01/26 08:41:35;;;;;;;10.23;8.27;;;-2.50;99.90;;;;;;5049024;28;20484;-51
2023/01/26 08:44:02;;;;;;;14.67;9.77;;;-2.60;99.90;;;;;;5048684;28;20447;-50
2023/01/26 08:46:29;;;;;;;11.73;7.53;;;-2.50;99.90;;;;;;5049143;28;20560;-50
2023/01/26 08:48:57;;;;;;;10.90;7.77;;;-2.60;99.90;;;;;;5049478;28;20531;-51
2023/01/26 08:51:24;;;;;;;10.40;7.50;;;-2.70;99.90;;;;;;5049297;28;20442;-50
2023/01/26 08:53:53;;;;;;;14.63;8.77;;;-2.80;99.90;;;;;;5049053;28;20531;-50
2023/01/26 08:56:20;;;;;;;16.60;8.67;;;-2.80;99.90;;;;;;5050860;28;20485;-51
2023/01/26 08:58:47;;;;;;;14.40;9.43;;;-2.70;99.90;;;;;;5053472;28;20539;-52
2023/01/26 09:01:16;;;;;;;14.93;7.50;;;-2.70;99.90;;;;;;5052785;28;20994;-52
2023/01/26 09:03:43;;;;;;;10.20;8.03;;;-2.70;99.90;;;;;;5052376;28;20536;-51
2023/01/26 09:06:13;;;;;;;12.27;8.13;;;-2.60;99.90;;;;;;5053365;28;20491;-51
2023/01/26 09:08:40;;;;;;;11.83;8.30;;;-2.50;99.90;;;;;;5052937;28;20461;-50
2023/01/26 09:11:08;;;;;;;14.87;8.67;;;-2.50;99.90;;;;;;5053436;28;20525;-51
2023/01/26 09:13:36;;;;;;;12.47;7.37;;;-2.60;99.90;;;;;;5052188;28;20540;-51
2023/01/26 09:16:04;;;;;;;13.17;8.10;;;-2.60;99.90;;;;;;5052649;28;20479;-50
2023/01/26 09:18:31;;;;;;;11.93;8.40;;;-2.50;99.90;;;;;;5052561;28;20882;-50
2023/01/26 09:21:02;;;;;;;13.40;9.17;;;-2.30;99.90;;;;;;5052684;28;20524;-51
2023/01/26 09:23:31;;;;;;;13.33;7.87;;;-2.30;99.90;;;;;;5051953;28;20544;-53
2023/01/26 09:25:58;;;;;;;12.77;8.30;;;-2.30;99.90;;;;;;5052668;28;20497;-51
2023/01/26 09:28:25;;;;;;;11.03;7.80;;;-2.30;99.90;;;;;;5052349;28;20532;-51
2023/01/26 09:30:52;;;;;;;10.30;7.07;;;-2.20;99.90;;;;;;5052870;28;20516;-51
2023/01/26 09:33:20;;;;;;;13.93;8.30;;;-2.10;99.90;;;;;;5051356;28;20536;-52
2023/01/26 09:35:47;;;;;;;8.50;6.30;;;-2.10;99.90;;;;;;5051999;28;20475;-51
2023/01/26 09:38:14;;;;;;;12.37;8.07;;;-2.20;99.90;;;;;;5051795;28;20449;-52
2023/01/26 09:40:49;;;;;;;10.13;7.43;;;-2.20;99.90;;;;;;5052643;28;20445;-51
2023/01/26 09:43:28;;;;;;;10.47;7.30;;;-2.20;99.90;;;;;;5050531;28;20594;-50
2023/01/26 09:46:04;;;;;;;18.73;11.03;;;-2.20;99.90;;;;;;5050484;28;20556;-52
2023/01/26 09:48:40;;;;;;;32.83;17.07;;;-2.10;99.90;;;;;;5050755;28;20536;-54
2023/01/26 09:51:11;;;;;;;20.70;11.50;;;-2.20;99.90;;;;;;5051065;28;20529;-51
2023/01/26 09:53:45;;;;;;;12.87;9.10;;;-2.10;99.90;;;;;;5050145;28;20525;-51
2023/01/26 09:56:17;;;;;;;12.50;9.03;;;-2.20;99.90;;;;;;5049220;28;20481;-50
2023/01/26 09:58:49;;;;;;;14.20;8.27;;;-2.20;99.90;;;;;;5052071;28;20441;-51
2023/01/26 10:01:22;;;;;;;12.37;8.40;;;-2.20;99.90;;;;;;5051708;28;21019;-49
2023/01/26 10:03:59;;;;;;;12.90;7.67;;;-2.10;99.90;;;;;;5051647;28;20567;-50
2023/01/26 10:06:29;;;;;;;12.70;9.23;;;-2.20;99.90;;;;;;5051156;28;20993;-50
2023/01/26 10:08:57;;;;;;;15.37;10.20;;;-2.20;99.90;;;;;;5051890;28;20507;-51
2023/01/26 10:11:31;;;;;;;12.70;8.30;;;-2.20;99.90;;;;;;5051618;28;20532;-53
2023/01/26 10:14:03;;;;;;;11.90;8.80;;;-2.20;99.90;;;;;;5051249;28;20842;-50
2023/01/26 10:16:32;;;;;;;18.47;10.40;;;-2.10;99.90;;;;;;5051294;28;20564;-50
2023/01/26 10:19:04;;;;;;;12.80;8.77;;;-2.00;99.90;;;;;;5051529;28;20529;-52
2023/01/26 10:21:33;;;;;;;11.80;8.40;;;-2.00;99.90;;;;;;5051569;28;20579;-52
2023/01/26 10:24:01;;;;;;;17.40;10.77;;;-2.00;99.90;;;;;;5051150;28;20558;-51
2023/01/26 10:26:32;;;;;;;17.03;10.13;;;-1.80;99.90;;;;;;5051081;28;20442;-50
2023/01/26 10:29:00;;;;;;;12.67;9.10;;;-1.70;99.90;;;;;;5051768;28;21031;-51
2023/01/26 10:31:30;;;;;;;13.80;9.33;;;-1.60;99.90;;;;;;5050915;28;21006;-51
2023/01/26 10:33:59;;;;;;;12.93;8.10;;;-1.60;99.90;;;;;;5049874;28;20448;-52
2023/01/26 10:36:30;;;;;;;12.27;8.50;;;-1.60;99.90;;;;;;5049611;28;20473;-53
2023/01/26 10:39:04;;;;;;;10.43;8.23;;;-1.60;99.90;;;;;;5049530;28;20438;-50
2023/01/26 10:41:32;;;;;;;12.63;8.43;;;-1.50;99.90;;;;;;5049541;28;20919;-52
2023/01/26 10:44:01;;;;;;;15.57;9.87;;;-1.40;99.90;;;;;;5048912;28;20499;-53
2023/01/26 10:46:31;;;;;;;15.07;9.50;;;-1.50;99.90;;;;;;5049629;28;20537;-51
2023/01/26 10:49:00;;;;;;;14.57;8.97;;;-1.60;99.90;;;;;;5050284;28;20541;-50
2023/01/26 10:51:30;;;;;;;15.97;10.00;;;-1.50;99.90;;;;;;5050769;28;20628;-50
2023/01/26 10:54:22;;;;;;;12.33;8.67;;;-1.50;99.90;;;;;;5050362;28;21049;-51
2023/01/26 10:56:53;;;;;;;13.20;8.90;;;-1.50;99.90;;;;;;5026932;28;20572;-51
2023/01/26 10:59:28;;;;;;;11.63;9.37;;;-1.40;99.90;;;;;;5050717;28;21014;-50
2023/01/26 11:01:57;;;;;;;11.20;7.67;;;-1.40;99.90;;;;;;5051085;28;20536;-49
2023/01/26 11:04:25;;;;;;;12.67;8.13;;;-1.30;99.90;;;;;;5049583;28;20541;-51
2023/01/26 11:06:52;;;;;;;12.23;8.20;;;-1.30;99.90;;;;;;5050954;28;20530;-50
2023/01/26 11:09:23;;;;;;;13.20;8.20;;;-1.20;99.90;;;;;;5048263;28;20536;-50
2023/01/26 11:12:00;;;;;;;16.20;9.60;;;-1.20;99.90;;;;;;5050226;28;20464;-49
2023/01/26 11:14:28;;;;;;;13.97;8.37;;;-1.10;99.90;;;;;;5049065;28;20465;-50
2023/01/26 11:17:00;;;;;;;15.40;8.47;;;-1.00;99.90;;;;;;5049791;28;20556;-49
2023/01/26 11:19:40;;;;;;;15.00;8.90;;;-0.90;99.90;;;;;;5050193;28;21026;-50
2023/01/26 11:22:11;;;;;;;10.93;8.27;;;-0.80;99.90;;;;;;5048767;28;20520;-52
2023/01/26 11:24:46;;;;;;;10.37;7.00;;;-0.70;99.90;;;;;;5049401;28;21025;-49
2023/01/26 11:27:26;;;;;;;12.30;8.90;;;-0.80;99.90;;;;;;5049865;28;20524;-51
2023/01/26 11:30:30;;;;;;;14.70;9.40;;;-0.80;99.90;;;;;;5048871;28;20946;-52
2023/01/26 11:33:01;;;;;;;13.07;9.27;;;-0.70;99.90;;;;;;5049041;28;20931;-48
2023/01/26 11:35:35;;;;;;;12.67;9.03;;;-0.70;99.90;;;;;;5044941;28;20570;-51
2023/01/26 11:38:21;;;;;;;17.27;9.07;;;-0.70;99.90;;;;;;5042013;28;20929;-50
2023/01/26 11:40:53;;;;;;;13.47;8.03;;;-0.60;99.90;;;;;;5047501;28;20553;-52
2023/01/26 11:43:47;;;;;;;14.50;8.93;;;-0.60;99.90;;;;;;5045147;28;20537;-51
2023/01/26 11:48:53;;;;;;;11.70;8.23;;;-0.60;99.90;;;;;;5043766;28;21029;-51
2023/01/26 11:51:30;;;;;;;13.43;8.57;;;-0.60;99.90;;;;;;5044165;28;20476;-50
2023/01/26 11:54:16;;;;;;;11.07;7.37;;;-0.60;99.90;;;;;;5027847;28;20521;-50
2023/01/26 11:56:50;;;;;;;13.50;8.63;;;-0.60;99.90;;;;;;5021071;28;20518;-50
2023/01/26 11:59:25;;;;;;;16.17;8.30;;;-0.60;99.90;;;;;;5028716;28;20560;-50
2023/01/26 12:02:00;;;;;;;12.37;8.03;;;-0.70;99.90;;;;;;5029436;28;20537;-51
2023/01/26 12:04:30;;;;;;;11.77;8.50;;;-0.70;99.90;;;;;;5027845;28;20461;-50
2023/01/26 12:07:03;;;;;;;12.63;7.37;;;-0.70;99.90;;;;;;5029675;28;20561;-48
2023/01/26 12:09:35;;;;;;;9.73;7.83;;;-0.70;99.90;;;;;;5029384;28;20549;-49
2023/01/26 12:12:08;;;;;;;10.43;7.90;;;-0.70;99.90;;;;;;5026973;28;20508;-48
2023/01/26 12:14:42;;;;;;;13.70;8.10;;;-0.80;99.90;;;;;;5027735;28;20541;-48
2023/01/26 12:17:27;;;;;;;12.80;8.07;;;-0.80;99.90;;;;;;5028898;28;20482;-48
2023/01/26 12:20:03;;;;;;;15.20;7.90;;;-0.70;99.90;;;;;;5028062;28;20450;-51
2023/01/26 12:22:34;;;;;;;13.67;8.20;;;-0.60;99.90;;;;;;5028525;28;20935;-50
2023/01/26 12:25:13;;;;;;;10.97;8.50;;;-0.80;99.90;;;;;;5026869;28;20626;-49
2023/01/26 12:27:43;;;;;;;15.23;9.47;;;-0.70;99.90;;;;;;5028956;28;20526;-50
2023/01/26 12:30:24;;;;;;;13.43;8.83;;;-0.90;99.90;;;;;;5033345;28;20862;-49
2023/01/26 12:32:51;;;;;;;14.73;9.43;;;-1.10;99.90;;;;;;5032819;28;20524;-56
2023/01/26 12:35:39;;;;;;;13.00;7.80;;;-1.70;99.90;;;;;;5033328;28;20537;-49
2023/01/26 12:38:11;;;;;;;14.10;9.30;;;-1.30;99.90;;;;;;5033682;28;20860;-49
2023/01/26 12:40:45;;;;;;;13.10;7.90;;;-1.10;99.90;;;;;;5034176;28;20546;-49
2023/01/26 12:43:24;;;;;;;17.53;8.10;;;-1.00;99.90;;;;;;5033394;28;20540;-50
2023/01/26 12:45:55;;;;;;;12.60;7.70;;;-0.80;99.90;;;;;;5033738;28;21010;-50
2023/01/26 12:48:26;;;;;;;15.20;9.50;;;-1.00;99.90;;;;;;5033693;28;20540;-50
2023/01/26 12:50:57;;;;;;;12.93;8.50;;;-0.90;99.90;;;;;;5034161;28;20525;-49
2023/01/26 12:53:30;;;;;;;14.13;8.50;;;-1.00;99.90;;;;;;5032782;28;20442;-49
2023/01/26 12:56:04;;;;;;;14.70;9.10;;;-0.90;99.90;;;;;;5033304;28;20982;-49
2023/01/26 12:58:34;;;;;;;13.47;8.70;;;-0.90;99.90;;;;;;5033014;28;20852;-50
2023/01/26 13:01:07;;;;;;;17.63;10.13;;;-1.00;99.90;;;;;;5033582;28;20537;-50
2023/01/26 13:03:37;;;;;;;17.20;9.60;;;-0.90;99.90;;;;;;5032228;28;20935;-49
2023/01/26 13:06:19;;;;;;;16.53;8.53;;;-1.00;99.90;;;;;;5033088;28;20849;-49
2023/01/26 13:08:52;;;;;;;18.20;9.07;;;-1.00;99.90;;;;;;5033280;28;20532;-49
2023/01/26 13:11:55;;;;;;;18.23;10.70;;;-1.20;99.90;;;;;;5031690;28;20540;-52
2023/01/26 13:14:41;;;;;;;14.63;10.00;;;-1.20;99.90;;;;;;5032717;28;20470;-49
2023/01/26 13:17:48;;;;;;;14.53;9.00;;;-1.20;99.90;;;;;;5020565;28;20458;-49
2023/01/26 13:20:28;;;;;;;19.90;9.90;;;-1.20;99.90;;;;;;5033405;28;20445;-49
2023/01/26 13:22:56;;;;;;;14.13;9.00;;;-1.00;99.90;;;;;;5033314;28;20534;-49
2023/01/26 13:25:31;;;;;;;16.87;10.53;;;-1.00;99.90;;;;;;5033072;28;20552;-50
2023/01/26 13:27:59;;;;;;;12.70;9.63;;;-0.90;99.90;;;;;;5033408;28;20454;-49
2023/01/26 13:30:38;;;;;;;20.57;11.17;;;-0.90;99.90;;;;;;5032455;28;20558;-52
2023/01/26 13:33:12;;;;;;;15.27;9.37;;;-0.90;99.90;;;;;;5032490;28;20522;-52
2023/01/26 13:35:41;;;;;;;20.63;9.87;;;-0.90;99.90;;;;;;5033122;28;20568;-49
2023/01/26 13:38:18;;;;;;;24.13;12.63;;;-0.80;99.90;;;;;;5031989;28;20928;-49